sensor_id;sensor_type;location;lat;lon;timestamp;P1;durP1;ratioP1;P2;durP2;ratioP2
26774;SDS011;14362;51.902;7.626;2022-08-01T00:00:18;17.67;;;13.50;;
26774;SDS011;14362;51.902;7.626;2022-08-01T00:04:19;17.25;;;14.43;;
26774;SDS011;14362;51.902;7.626;2022-08-01T00:08:22;23.20;;;14.45;;
26774;SDS011;14362;51.902;7.626;2022-08-01T00:12:23;20.77;;;15.05;;
26774;SDS011;14362;51.902;7.626;2022-08-01T00:16:25;20.30;;;14.55;;
26774;SDS011;14362;51.902;7.626;2022-08-01T00:20:26;22.08;;;15.90;;
26774;SDS011;14362;51.902;7.626;2022-08-01T00:24:29;22.48;;;16.98;;
26774;SDS011;14362;51.902;7.626;2022-08-01T00:28:31;18.80;;;16.25;;
26774;SDS011;14362;51.902;7.626;2022-08-01T00:32:32;24.25;;;17.50;;
26774;SDS011;14362;51.902;7.626;2022-08-01T00:36:34;26.33;;;17.92;;
26774;SDS011;14362;51.902;7.626;2022-08-01T00:40:36;24.30;;;16.98;;
26774;SDS011;14362;51.902;7.626;2022-08-01T00:44:38;20.00;;;13.90;;
26774;SDS011;14362;51.902;7.626;2022-08-01T00:48:40;19.85;;;14.07;;
26774;SDS011;14362;51.902;7.626;2022-08-01T00:52:42;16.08;;;11.52;;
26774;SDS011;14362;51.902;7.626;2022-08-01T00:56:46;16.20;;;11.43;;
26774;SDS011;14362;51.902;7.626;2022-08-01T01:00:47;16.50;;;10.75;;
26774;SDS011;14362;51.902;7.626;2022-08-01T01:04:49;15.38;;;10.68;;
26774;SDS011;14362;51.902;7.626;2022-08-01T01:08:53;11.20;;;10.00;;
26774;SDS011;14362;51.902;7.626;2022-08-01T01:13:04;14.80;;;9.40;;
26774;SDS011;14362;51.902;7.626;2022-08-01T01:17:10;14.48;;;10.15;;
26774;SDS011;14362;51.902;7.626;2022-08-01T01:26:13;14.88;;;10.20;;
26774;SDS011;14362;51.902;7.626;2022-08-01T01:30:25;10.90;;;9.70;;
26774;SDS011;14362;51.902;7.626;2022-08-01T01:34:31;10.80;;;9.23;;
26774;SDS011;14362;51.902;7.626;2022-08-01T01:38:41;12.05;;;9.95;;
26774;SDS011;14362;51.902;7.626;2022-08-01T01:42:45;12.75;;;9.45;;
26774;SDS011;14362;51.902;7.626;2022-08-01T01:46:49;12.50;;;9.07;;
26774;SDS011;14362;51.902;7.626;2022-08-01T01:50:54;10.65;;;8.98;;
26774;SDS011;14362;51.902;7.626;2022-08-01T01:54:56;11.57;;;9.25;;
26774;SDS011;14362;51.902;7.626;2022-08-01T01:59:00;10.50;;;8.30;;
26774;SDS011;14362;51.902;7.626;2022-08-01T02:03:05;14.27;;;10.23;;
26774;SDS011;14362;51.902;7.626;2022-08-01T02:11:10;17.20;;;12.85;;
26774;SDS011;14362;51.902;7.626;2022-08-01T02:15:21;19.75;;;14.45;;
26774;SDS011;14362;51.902;7.626;2022-08-01T02:19:26;24.77;;;15.95;;
26774;SDS011;14362;51.902;7.626;2022-08-01T02:23:28;17.75;;;12.93;;
26774;SDS011;14362;51.902;7.626;2022-08-01T02:27:34;18.52;;;14.07;;
26774;SDS011;14362;51.902;7.626;2022-08-01T02:31:41;19.02;;;14.10;;
26774;SDS011;14362;51.902;7.626;2022-08-01T02:35:48;20.42;;;14.20;;
26774;SDS011;14362;51.902;7.626;2022-08-01T02:39:52;18.13;;;14.25;;
26774;SDS011;14362;51.902;7.626;2022-08-01T02:43:56;19.10;;;12.93;;
26774;SDS011;14362;51.902;7.626;2022-08-01T02:48:04;18.48;;;13.43;;
26774;SDS011;14362;51.902;7.626;2022-08-01T02:52:11;19.17;;;12.65;;
26774;SDS011;14362;51.902;7.626;2022-08-01T02:56:14;16.98;;;11.27;;
26774;SDS011;14362;51.902;7.626;2022-08-01T03:00:18;14.60;;;11.70;;
26774;SDS011;14362;51.902;7.626;2022-08-01T03:04:20;14.95;;;10.15;;
26774;SDS011;14362;51.902;7.626;2022-08-01T03:08:24;13.25;;;9.80;;
26774;SDS011;14362;51.902;7.626;2022-08-01T03:12:27;15.40;;;11.82;;
26774;SDS011;14362;51.902;7.626;2022-08-01T03:16:30;13.63;;;12.23;;
26774;SDS011;14362;51.902;7.626;2022-08-01T03:20:34;18.02;;;11.70;;
26774;SDS011;14362;51.902;7.626;2022-08-01T03:24:37;13.70;;;10.65;;
26774;SDS011;14362;51.902;7.626;2022-08-01T03:28:42;18.65;;;12.95;;
26774;SDS011;14362;51.902;7.626;2022-08-01T03:32:47;18.15;;;12.25;;
26774;SDS011;14362;51.902;7.626;2022-08-01T03:36:49;19.73;;;12.60;;
26774;SDS011;14362;51.902;7.626;2022-08-01T03:40:56;17.95;;;12.30;;
26774;SDS011;14362;51.902;7.626;2022-08-01T03:45:05;15.95;;;11.88;;
26774;SDS011;14362;51.902;7.626;2022-08-01T03:49:10;17.75;;;12.23;;
26774;SDS011;14362;51.902;7.626;2022-08-01T03:53:14;14.88;;;10.15;;
26774;SDS011;14362;51.902;7.626;2022-08-01T03:57:20;12.38;;;9.00;;
26774;SDS011;14362;51.902;7.626;2022-08-01T04:01:25;12.07;;;9.18;;
26774;SDS011;14362;51.902;7.626;2022-08-01T04:05:27;17.48;;;11.57;;
26774;SDS011;14362;51.902;7.626;2022-08-01T04:09:29;15.05;;;10.95;;
26774;SDS011;14362;51.902;7.626;2022-08-01T04:13:32;18.42;;;12.25;;
26774;SDS011;14362;51.902;7.626;2022-08-01T04:17:34;17.20;;;11.85;;
26774;SDS011;14362;51.902;7.626;2022-08-01T04:21:35;10.68;;;9.05;;
26774;SDS011;14362;51.902;7.626;2022-08-01T04:25:37;10.70;;;7.32;;
26774;SDS011;14362;51.902;7.626;2022-08-01T04:33:48;14.38;;;9.93;;
26774;SDS011;14362;51.902;7.626;2022-08-01T04:37:52;12.20;;;9.18;;
26774;SDS011;14362;51.902;7.626;2022-08-01T04:41:54;12.88;;;8.93;;
26774;SDS011;14362;51.902;7.626;2022-08-01T04:45:58;11.20;;;8.43;;
26774;SDS011;14362;51.902;7.626;2022-08-01T04:50:04;11.45;;;7.60;;
26774;SDS011;14362;51.902;7.626;2022-08-01T04:54:07;7.15;;;5.72;;
26774;SDS011;14362;51.902;7.626;2022-08-01T04:58:09;6.63;;;5.53;;
26774;SDS011;14362;51.902;7.626;2022-08-01T05:02:13;7.63;;;5.45;;
26774;SDS011;14362;51.902;7.626;2022-08-01T05:06:16;8.00;;;5.90;;
26774;SDS011;14362;51.902;7.626;2022-08-01T05:10:17;8.20;;;5.72;;
26774;SDS011;14362;51.902;7.626;2022-08-01T05:14:19;13.48;;;7.15;;
26774;SDS011;14362;51.902;7.626;2022-08-01T05:18:22;10.27;;;7.78;;
26774;SDS011;14362;51.902;7.626;2022-08-01T05:22:23;14.85;;;8.38;;
26774;SDS011;14362;51.902;7.626;2022-08-01T05:26:25;9.25;;;7.07;;
26774;SDS011;14362;51.902;7.626;2022-08-01T05:30:27;8.75;;;6.32;;
26774;SDS011;14362;51.902;7.626;2022-08-01T05:34:30;7.22;;;6.10;;
26774;SDS011;14362;51.902;7.626;2022-08-01T05:38:31;6.70;;;5.45;;
26774;SDS011;14362;51.902;7.626;2022-08-01T05:42:33;7.70;;;5.72;;
26774;SDS011;14362;51.902;7.626;2022-08-01T05:46:34;7.97;;;5.93;;
26774;SDS011;14362;51.902;7.626;2022-08-01T05:50:38;6.72;;;4.97;;
26774;SDS011;14362;51.902;7.626;2022-08-01T05:54:39;8.20;;;5.05;;
26774;SDS011;14362;51.902;7.626;2022-08-01T05:58:41;5.25;;;4.25;;
26774;SDS011;14362;51.902;7.626;2022-08-01T06:02:42;5.80;;;4.50;;
26774;SDS011;14362;51.902;7.626;2022-08-01T06:06:45;5.35;;;3.90;;
26774;SDS011;14362;51.902;7.626;2022-08-01T06:10:46;6.35;;;4.53;;
26774;SDS011;14362;51.902;7.626;2022-08-01T06:14:48;5.50;;;4.50;;
26774;SDS011;14362;51.902;7.626;2022-08-01T06:18:49;5.55;;;4.38;;
26774;SDS011;14362;51.902;7.626;2022-08-01T06:22:52;6.20;;;4.70;;
26774;SDS011;14362;51.902;7.626;2022-08-01T06:26:54;6.10;;;5.45;;
26774;SDS011;14362;51.902;7.626;2022-08-01T06:30:55;5.10;;;4.50;;
26774;SDS011;14362;51.902;7.626;2022-08-01T06:34:58;6.50;;;5.55;;
26774;SDS011;14362;51.902;7.626;2022-08-01T06:39:01;7.82;;;5.47;;
26774;SDS011;14362;51.902;7.626;2022-08-01T06:43:02;5.35;;;4.63;;
26774;SDS011;14362;51.902;7.626;2022-08-01T06:47:04;5.63;;;4.80;;
26774;SDS011;14362;51.902;7.626;2022-08-01T06:51:05;5.95;;;5.40;;
26774;SDS011;14362;51.902;7.626;2022-08-01T06:55:14;6.28;;;5.55;;
26774;SDS011;14362;51.902;7.626;2022-08-01T06:59:16;4.80;;;4.18;;
26774;SDS011;14362;51.902;7.626;2022-08-01T07:03:17;4.82;;;4.32;;
26774;SDS011;14362;51.902;7.626;2022-08-01T07:07:19;3.83;;;3.22;;
26774;SDS011;14362;51.902;7.626;2022-08-01T07:11:22;3.60;;;3.08;;
26774;SDS011;14362;51.902;7.626;2022-08-01T07:19:27;3.13;;;2.38;;
26774;SDS011;14362;51.902;7.626;2022-08-01T07:23:28;2.30;;;2.10;;
26774;SDS011;14362;51.902;7.626;2022-08-01T07:27:31;2.33;;;2.13;;
26774;SDS011;14362;51.902;7.626;2022-08-01T07:31:33;2.67;;;2.42;;
26774;SDS011;14362;51.902;7.626;2022-08-01T07:35:34;2.92;;;2.65;;
26774;SDS011;14362;51.902;7.626;2022-08-01T07:39:38;3.17;;;2.80;;
26774;SDS011;14362;51.902;7.626;2022-08-01T07:43:40;3.45;;;3.15;;
26774;SDS011;14362;51.902;7.626;2022-08-01T07:47:42;4.53;;;3.92;;
26774;SDS011;14362;51.902;7.626;2022-08-01T07:51:44;5.03;;;3.92;;
26774;SDS011;14362;51.902;7.626;2022-08-01T07:55:45;4.20;;;3.80;;
26774;SDS011;14362;51.902;7.626;2022-08-01T07:59:48;5.00;;;4.50;;
26774;SDS011;14362;51.902;7.626;2022-08-01T08:03:49;5.57;;;5.07;;
26774;SDS011;14362;51.902;7.626;2022-08-01T08:07:51;5.18;;;4.68;;
26774;SDS011;14362;51.902;7.626;2022-08-01T08:11:52;4.65;;;4.25;;
26774;SDS011;14362;51.902;7.626;2022-08-01T08:15:55;5.35;;;4.78;;
26774;SDS011;14362;51.902;7.626;2022-08-01T08:23:59;6.45;;;5.22;;
26774;SDS011;14362;51.902;7.626;2022-08-01T08:28:23;6.38;;;5.78;;
26774;SDS011;14362;51.902;7.626;2022-08-01T08:32:26;5.85;;;5.35;;
26774;SDS011;14362;51.902;7.626;2022-08-01T08:36:27;7.95;;;6.45;;
26774;SDS011;14362;51.902;7.626;2022-08-01T08:40:29;5.72;;;5.13;;
26774;SDS011;14362;51.902;7.626;2022-08-01T08:44:31;6.90;;;5.35;;
26774;SDS011;14362;51.902;7.626;2022-08-01T08:48:34;6.10;;;5.38;;
26774;SDS011;14362;51.902;7.626;2022-08-01T08:52:37;6.90;;;5.93;;
26774;SDS011;14362;51.902;7.626;2022-08-01T08:56:40;9.70;;;6.85;;
26774;SDS011;14362;51.902;7.626;2022-08-01T09:00:42;13.02;;;7.45;;
26774;SDS011;14362;51.902;7.626;2022-08-01T09:04:45;6.75;;;5.90;;
26774;SDS011;14362;51.902;7.626;2022-08-01T09:08:49;7.35;;;5.38;;
26774;SDS011;14362;51.902;7.626;2022-08-01T09:13:07;7.95;;;6.55;;
26774;SDS011;14362;51.902;7.626;2022-08-01T09:17:10;9.13;;;6.13;;
26774;SDS011;14362;51.902;7.626;2022-08-01T09:21:15;15.30;;;8.70;;
26774;SDS011;14362;51.902;7.626;2022-08-01T09:25:18;10.43;;;7.55;;
26774;SDS011;14362;51.902;7.626;2022-08-01T09:29:20;8.80;;;6.35;;
26774;SDS011;14362;51.902;7.626;2022-08-01T09:33:24;7.88;;;6.40;;
26774;SDS011;14362;51.902;7.626;2022-08-01T09:37:30;6.72;;;5.45;;
26774;SDS011;14362;51.902;7.626;2022-08-01T09:41:32;4.88;;;4.47;;
26774;SDS011;14362;51.902;7.626;2022-08-01T09:45:33;7.65;;;5.40;;
26774;SDS011;14362;51.902;7.626;2022-08-01T09:49:35;4.43;;;3.97;;
26774;SDS011;14362;51.902;7.626;2022-08-01T09:53:43;5.00;;;4.20;;
26774;SDS011;14362;51.902;7.626;2022-08-01T09:57:54;7.30;;;4.70;;
26774;SDS011;14362;51.902;7.626;2022-08-01T10:01:56;6.18;;;5.55;;
26774;SDS011;14362;51.902;7.626;2022-08-01T10:05:57;6.35;;;4.80;;
26774;SDS011;14362;51.902;7.626;2022-08-01T10:10:09;6.38;;;5.10;;
26774;SDS011;14362;51.902;7.626;2022-08-01T10:14:12;4.68;;;3.33;;
26774;SDS011;14362;51.902;7.626;2022-08-01T10:18:15;3.83;;;2.95;;
26774;SDS011;14362;51.902;7.626;2022-08-01T10:22:16;4.28;;;3.00;;
26774;SDS011;14362;51.902;7.626;2022-08-01T10:26:21;4.68;;;2.92;;
26774;SDS011;14362;51.902;7.626;2022-08-01T10:30:26;5.53;;;3.78;;
26774;SDS011;14362;51.902;7.626;2022-08-01T10:34:28;5.55;;;3.78;;
26774;SDS011;14362;51.902;7.626;2022-08-01T10:38:31;6.50;;;4.50;;
26774;SDS011;14362;51.902;7.626;2022-08-01T10:42:34;4.10;;;3.80;;
26774;SDS011;14362;51.902;7.626;2022-08-01T10:46:37;4.22;;;3.80;;
26774;SDS011;14362;51.902;7.626;2022-08-01T10:50:40;2.88;;;2.67;;
26774;SDS011;14362;51.902;7.626;2022-08-01T10:54:43;3.63;;;3.10;;
26774;SDS011;14362;51.902;7.626;2022-08-01T10:58:47;5.90;;;3.78;;
26774;SDS011;14362;51.902;7.626;2022-08-01T11:02:57;2.67;;;2.17;;
26774;SDS011;14362;51.902;7.626;2022-08-01T11:07:02;3.10;;;2.67;;
26774;SDS011;14362;51.902;7.626;2022-08-01T11:11:06;3.95;;;2.80;;
26774;SDS011;14362;51.902;7.626;2022-08-01T11:15:19;4.60;;;3.55;;
26774;SDS011;14362;51.902;7.626;2022-08-01T11:19:41;3.67;;;3.30;;
26774;SDS011;14362;51.902;7.626;2022-08-01T11:24:08;4.75;;;3.72;;
26774;SDS011;14362;51.902;7.626;2022-08-01T11:28:20;5.65;;;3.55;;
26774;SDS011;14362;51.902;7.626;2022-08-01T11:32:23;8.63;;;5.25;;
26774;SDS011;14362;51.902;7.626;2022-08-01T11:36:27;6.18;;;5.57;;
26774;SDS011;14362;51.902;7.626;2022-08-01T11:40:29;6.32;;;5.72;;
26774;SDS011;14362;51.902;7.626;2022-08-01T11:44:30;6.65;;;5.95;;
26774;SDS011;14362;51.902;7.626;2022-08-01T11:49:01;6.30;;;5.70;;
26774;SDS011;14362;51.902;7.626;2022-08-01T11:53:24;8.15;;;7.20;;
26774;SDS011;14362;51.902;7.626;2022-08-01T11:57:27;8.30;;;7.43;;
26774;SDS011;14362;51.902;7.626;2022-08-01T12:01:30;8.77;;;7.90;;
26774;SDS011;14362;51.902;7.626;2022-08-01T12:05:33;10.35;;;7.93;;
26774;SDS011;14362;51.902;7.626;2022-08-01T12:09:38;9.38;;;8.25;;
26774;SDS011;14362;51.902;7.626;2022-08-01T12:13:40;10.30;;;8.65;;
26774;SDS011;14362;51.902;7.626;2022-08-01T12:17:43;10.48;;;8.82;;
26774;SDS011;14362;51.902;7.626;2022-08-01T12:26:09;9.88;;;8.88;;
26774;SDS011;14362;51.902;7.626;2022-08-01T12:30:11;10.32;;;8.70;;
26774;SDS011;14362;51.902;7.626;2022-08-01T12:34:26;7.90;;;6.65;;
26774;SDS011;14362;51.902;7.626;2022-08-01T12:42:34;7.88;;;5.60;;
26774;SDS011;14362;51.902;7.626;2022-08-01T12:46:37;7.68;;;6.15;;
26774;SDS011;14362;51.902;7.626;2022-08-01T12:50:39;8.88;;;6.40;;
26774;SDS011;14362;51.902;7.626;2022-08-01T12:59:20;11.05;;;6.80;;
26774;SDS011;14362;51.902;7.626;2022-08-01T13:03:24;9.40;;;6.70;;
26774;SDS011;14362;51.902;7.626;2022-08-01T13:07:34;8.43;;;6.38;;
26774;SDS011;14362;51.902;7.626;2022-08-01T13:11:36;7.85;;;5.13;;
26774;SDS011;14362;51.902;7.626;2022-08-01T13:15:39;7.88;;;5.30;;
26774;SDS011;14362;51.902;7.626;2022-08-01T13:19:43;10.13;;;5.40;;
26774;SDS011;14362;51.902;7.626;2022-08-01T13:23:59;6.85;;;5.00;;
26774;SDS011;14362;51.902;7.626;2022-08-01T13:28:14;7.82;;;4.53;;
26774;SDS011;14362;51.902;7.626;2022-08-01T13:32:18;5.95;;;4.38;;
26774;SDS011;14362;51.902;7.626;2022-08-01T13:36:22;6.95;;;4.00;;
26774;SDS011;14362;51.902;7.626;2022-08-01T13:40:26;4.25;;;3.10;;
26774;SDS011;14362;51.902;7.626;2022-08-01T13:44:28;4.78;;;2.58;;
26774;SDS011;14362;51.902;7.626;2022-08-01T13:48:32;8.38;;;2.50;;
26774;SDS011;14362;51.902;7.626;2022-08-01T13:52:33;4.60;;;2.05;;
26774;SDS011;14362;51.902;7.626;2022-08-01T13:56:35;3.95;;;2.45;;
26774;SDS011;14362;51.902;7.626;2022-08-01T14:00:36;3.90;;;2.05;;
26774;SDS011;14362;51.902;7.626;2022-08-01T14:04:39;2.53;;;2.00;;
26774;SDS011;14362;51.902;7.626;2022-08-01T14:08:41;6.43;;;2.40;;
26774;SDS011;14362;51.902;7.626;2022-08-01T14:12:42;3.78;;;2.20;;
26774;SDS011;14362;51.902;7.626;2022-08-01T14:16:44;3.15;;;2.20;;
26774;SDS011;14362;51.902;7.626;2022-08-01T14:20:47;4.57;;;2.20;;
26774;SDS011;14362;51.902;7.626;2022-08-01T14:24:48;3.90;;;2.92;;
26774;SDS011;14362;51.902;7.626;2022-08-01T14:28:50;6.30;;;3.13;;
26774;SDS011;14362;51.902;7.626;2022-08-01T14:32:51;4.18;;;2.28;;
26774;SDS011;14362;51.902;7.626;2022-08-01T14:36:54;3.28;;;2.13;;
26774;SDS011;14362;51.902;7.626;2022-08-01T14:40:55;3.65;;;2.78;;
26774;SDS011;14362;51.902;7.626;2022-08-01T14:44:57;6.00;;;2.17;;
26774;SDS011;14362;51.902;7.626;2022-08-01T14:48:59;3.20;;;2.08;;
26774;SDS011;14362;51.902;7.626;2022-08-01T14:53:01;3.95;;;2.50;;
26774;SDS011;14362;51.902;7.626;2022-08-01T14:57:03;4.35;;;2.58;;
26774;SDS011;14362;51.902;7.626;2022-08-01T15:01:05;6.32;;;2.50;;
26774;SDS011;14362;51.902;7.626;2022-08-01T15:05:06;8.05;;;2.78;;
26774;SDS011;14362;51.902;7.626;2022-08-01T15:09:09;5.03;;;2.00;;
26774;SDS011;14362;51.902;7.626;2022-08-01T15:13:11;3.55;;;2.13;;
26774;SDS011;14362;51.902;7.626;2022-08-01T15:17:12;4.57;;;2.50;;
26774;SDS011;14362;51.902;7.626;2022-08-01T15:21:14;5.47;;;2.55;;
26774;SDS011;14362;51.902;7.626;2022-08-01T15:25:17;4.63;;;2.35;;
26774;SDS011;14362;51.902;7.626;2022-08-01T15:29:18;9.15;;;3.40;;
26774;SDS011;14362;51.902;7.626;2022-08-01T15:33:19;5.75;;;2.58;;
26774;SDS011;14362;51.902;7.626;2022-08-01T15:37:21;4.80;;;2.65;;
26774;SDS011;14362;51.902;7.626;2022-08-01T15:41:24;4.68;;;2.10;;
26774;SDS011;14362;51.902;7.626;2022-08-01T15:45:26;6.53;;;2.45;;
26774;SDS011;14362;51.902;7.626;2022-08-01T15:49:27;4.32;;;2.40;;
26774;SDS011;14362;51.902;7.626;2022-08-01T15:53:29;10.52;;;2.22;;
26774;SDS011;14362;51.902;7.626;2022-08-01T15:57:32;6.85;;;2.20;;
26774;SDS011;14362;51.902;7.626;2022-08-01T16:01:33;5.15;;;2.60;;
26774;SDS011;14362;51.902;7.626;2022-08-01T16:05:34;3.55;;;1.90;;
26774;SDS011;14362;51.902;7.626;2022-08-01T16:09:36;4.43;;;2.25;;
26774;SDS011;14362;51.902;7.626;2022-08-01T16:13:39;3.95;;;2.00;;
26774;SDS011;14362;51.902;7.626;2022-08-01T16:17:40;6.25;;;2.47;;
26774;SDS011;14362;51.902;7.626;2022-08-01T16:21:42;5.57;;;1.80;;
26774;SDS011;14362;51.902;7.626;2022-08-01T16:25:43;3.85;;;1.92;;
26774;SDS011;14362;51.902;7.626;2022-08-01T16:29:46;4.65;;;2.10;;
26774;SDS011;14362;51.902;7.626;2022-08-01T16:33:47;4.57;;;1.67;;
26774;SDS011;14362;51.902;7.626;2022-08-01T16:37:49;5.47;;;1.70;;
26774;SDS011;14362;51.902;7.626;2022-08-01T16:41:51;5.82;;;2.20;;
26774;SDS011;14362;51.902;7.626;2022-08-01T16:45:54;5.35;;;1.73;;
26774;SDS011;14362;51.902;7.626;2022-08-01T16:49:55;3.08;;;1.88;;
26774;SDS011;14362;51.902;7.626;2022-08-01T16:53:56;3.63;;;1.50;;
26774;SDS011;14362;51.902;7.626;2022-08-01T16:57:58;3.75;;;1.48;;
26774;SDS011;14362;51.902;7.626;2022-08-01T17:02:01;4.18;;;1.75;;
26774;SDS011;14362;51.902;7.626;2022-08-01T17:06:02;5.18;;;2.00;;
26774;SDS011;14362;51.902;7.626;2022-08-01T17:10:04;3.83;;;1.60;;
26774;SDS011;14362;51.902;7.626;2022-08-01T17:14:06;4.93;;;1.67;;
26774;SDS011;14362;51.902;7.626;2022-08-01T17:18:09;7.97;;;2.15;;
26774;SDS011;14362;51.902;7.626;2022-08-01T17:22:11;4.15;;;1.60;;
26774;SDS011;14362;51.902;7.626;2022-08-01T17:26:12;6.78;;;1.88;;
26774;SDS011;14362;51.902;7.626;2022-08-01T17:30:13;3.30;;;1.65;;
26774;SDS011;14362;51.902;7.626;2022-08-01T17:34:16;4.47;;;1.92;;
26774;SDS011;14362;51.902;7.626;2022-08-01T17:38:18;5.32;;;1.73;;
26774;SDS011;14362;51.902;7.626;2022-08-01T17:42:19;5.78;;;2.00;;
26774;SDS011;14362;51.902;7.626;2022-08-01T17:46:21;4.43;;;1.70;;
26774;SDS011;14362;51.902;7.626;2022-08-01T17:50:23;2.13;;;1.52;;
26774;SDS011;14362;51.902;7.626;2022-08-01T17:54:25;3.08;;;1.52;;
26774;SDS011;14362;51.902;7.626;2022-08-01T17:58:26;4.57;;;1.70;;
26774;SDS011;14362;51.902;7.626;2022-08-01T18:02:28;5.28;;;1.63;;
26774;SDS011;14362;51.902;7.626;2022-08-01T18:06:31;3.65;;;1.90;;
26774;SDS011;14362;51.902;7.626;2022-08-01T18:10:33;5.45;;;1.80;;
26774;SDS011;14362;51.902;7.626;2022-08-01T18:14:34;5.55;;;2.15;;
26774;SDS011;14362;51.902;7.626;2022-08-01T18:18:35;7.38;;;1.90;;
26774;SDS011;14362;51.902;7.626;2022-08-01T18:22:39;2.55;;;1.45;;
26774;SDS011;14362;51.902;7.626;2022-08-01T18:26:41;1.75;;;1.30;;
26774;SDS011;14362;51.902;7.626;2022-08-01T18:30:42;3.30;;;1.50;;
26774;SDS011;14362;51.902;7.626;2022-08-01T18:34:44;3.90;;;2.03;;
26774;SDS011;14362;51.902;7.626;2022-08-01T18:38:47;3.97;;;1.70;;
26774;SDS011;14362;51.902;7.626;2022-08-01T18:42:48;4.75;;;1.55;;
26774;SDS011;14362;51.902;7.626;2022-08-01T18:46:49;3.15;;;1.90;;
26774;SDS011;14362;51.902;7.626;2022-08-01T18:50:51;4.63;;;2.00;;
26774;SDS011;14362;51.902;7.626;2022-08-01T18:54:54;5.85;;;2.17;;
26774;SDS011;14362;51.902;7.626;2022-08-01T18:58:56;6.97;;;3.03;;
26774;SDS011;14362;51.902;7.626;2022-08-01T19:02:57;3.03;;;1.92;;
26774;SDS011;14362;51.902;7.626;2022-08-01T19:06:59;4.30;;;2.30;;
26774;SDS011;14362;51.902;7.626;2022-08-01T19:11:02;4.60;;;2.40;;
26774;SDS011;14362;51.902;7.626;2022-08-01T19:15:03;6.28;;;2.05;;
26774;SDS011;14362;51.902;7.626;2022-08-01T19:19:06;7.20;;;2.60;;
26774;SDS011;14362;51.902;7.626;2022-08-01T19:23:08;3.40;;;2.25;;
26774;SDS011;14362;51.902;7.626;2022-08-01T19:27:25;3.17;;;2.15;;
26774;SDS011;14362;51.902;7.626;2022-08-01T19:31:31;4.35;;;2.10;;
26774;SDS011;14362;51.902;7.626;2022-08-01T19:35:34;4.95;;;2.13;;
26774;SDS011;14362;51.902;7.626;2022-08-01T19:39:36;5.88;;;2.50;;
26774;SDS011;14362;51.902;7.626;2022-08-01T19:43:45;5.13;;;2.30;;
26774;SDS011;14362;51.902;7.626;2022-08-01T19:47:46;4.15;;;2.45;;
26774;SDS011;14362;51.902;7.626;2022-08-01T19:51:52;4.40;;;2.40;;
26774;SDS011;14362;51.902;7.626;2022-08-01T19:56:00;4.00;;;2.40;;
26774;SDS011;14362;51.902;7.626;2022-08-01T20:00:06;4.83;;;2.40;;
26774;SDS011;14362;51.902;7.626;2022-08-01T20:04:08;5.78;;;2.72;;
26774;SDS011;14362;51.902;7.626;2022-08-01T20:08:11;7.75;;;3.17;;
26774;SDS011;14362;51.902;7.626;2022-08-01T20:12:12;6.78;;;2.83;;
26774;SDS011;14362;51.902;7.626;2022-08-01T20:16:15;7.43;;;3.00;;
26774;SDS011;14362;51.902;7.626;2022-08-01T20:20:17;6.57;;;3.17;;
26774;SDS011;14362;51.902;7.626;2022-08-01T20:24:19;4.78;;;2.92;;
26774;SDS011;14362;51.902;7.626;2022-08-01T20:28:26;5.95;;;3.03;;
26774;SDS011;14362;51.902;7.626;2022-08-01T20:32:31;5.25;;;2.92;;
26774;SDS011;14362;51.902;7.626;2022-08-01T20:40:36;6.13;;;3.53;;
26774;SDS011;14362;51.902;7.626;2022-08-01T20:44:39;7.10;;;3.33;;
26774;SDS011;14362;51.902;7.626;2022-08-01T20:48:42;6.72;;;3.60;;
26774;SDS011;14362;51.902;7.626;2022-08-01T20:52:47;5.90;;;3.05;;
26774;SDS011;14362;51.902;7.626;2022-08-01T20:56:52;5.25;;;3.20;;
26774;SDS011;14362;51.902;7.626;2022-08-01T21:00:57;4.97;;;3.40;;
26774;SDS011;14362;51.902;7.626;2022-08-01T21:05:04;10.30;;;3.40;;
26774;SDS011;14362;51.902;7.626;2022-08-01T21:09:09;8.23;;;4.10;;
26774;SDS011;14362;51.902;7.626;2022-08-01T21:13:15;6.00;;;3.13;;
26774;SDS011;14362;51.902;7.626;2022-08-01T21:17:22;8.05;;;4.43;;
26774;SDS011;14362;51.902;7.626;2022-08-01T21:21:33;5.30;;;3.40;;
26774;SDS011;14362;51.902;7.626;2022-08-01T21:25:39;6.78;;;3.70;;
26774;SDS011;14362;51.902;7.626;2022-08-01T21:29:42;10.10;;;3.80;;
26774;SDS011;14362;51.902;7.626;2022-08-01T21:33:46;4.47;;;3.10;;
26774;SDS011;14362;51.902;7.626;2022-08-01T21:37:49;7.38;;;3.67;;
26774;SDS011;14362;51.902;7.626;2022-08-01T21:41:51;6.93;;;3.45;;
26774;SDS011;14362;51.902;7.626;2022-08-01T21:45:52;6.65;;;3.70;;
26774;SDS011;14362;51.902;7.626;2022-08-01T21:49:54;6.38;;;3.55;;
26774;SDS011;14362;51.902;7.626;2022-08-01T21:54:03;8.20;;;3.72;;
26774;SDS011;14362;51.902;7.626;2022-08-01T21:58:22;5.57;;;3.55;;
26774;SDS011;14362;51.902;7.626;2022-08-01T22:02:34;7.20;;;3.13;;
26774;SDS011;14362;51.902;7.626;2022-08-01T22:06:38;5.75;;;3.55;;
26774;SDS011;14362;51.902;7.626;2022-08-01T22:10:45;4.57;;;3.88;;
26774;SDS011;14362;51.902;7.626;2022-08-01T22:14:48;8.63;;;4.18;;
26774;SDS011;14362;51.902;7.626;2022-08-01T22:18:53;9.13;;;3.58;;
26774;SDS011;14362;51.902;7.626;2022-08-01T22:22:56;9.18;;;3.80;;
26774;SDS011;14362;51.902;7.626;2022-08-01T22:26:59;5.88;;;3.30;;
26774;SDS011;14362;51.902;7.626;2022-08-01T22:31:03;8.15;;;4.07;;
26774;SDS011;14362;51.902;7.626;2022-08-01T22:35:08;6.07;;;2.85;;
26774;SDS011;14362;51.902;7.626;2022-08-01T22:39:14;8.98;;;3.10;;
26774;SDS011;14362;51.902;7.626;2022-08-01T22:43:24;7.13;;;3.13;;
26774;SDS011;14362;51.902;7.626;2022-08-01T22:47:33;7.25;;;3.17;;
26774;SDS011;14362;51.902;7.626;2022-08-01T22:51:49;6.63;;;3.30;;
26774;SDS011;14362;51.902;7.626;2022-08-01T22:55:57;7.03;;;3.08;;
26774;SDS011;14362;51.902;7.626;2022-08-01T23:00:04;5.72;;;3.47;;
26774;SDS011;14362;51.902;7.626;2022-08-01T23:04:08;11.07;;;3.25;;
26774;SDS011;14362;51.902;7.626;2022-08-01T23:08:16;4.57;;;3.28;;
26774;SDS011;14362;51.902;7.626;2022-08-01T23:12:19;5.05;;;2.83;;
26774;SDS011;14362;51.902;7.626;2022-08-01T23:16:23;8.38;;;3.25;;
26774;SDS011;14362;51.902;7.626;2022-08-01T23:20:25;8.18;;;3.17;;
26774;SDS011;14362;51.902;7.626;2022-08-01T23:24:27;9.95;;;3.10;;
26774;SDS011;14362;51.902;7.626;2022-08-01T23:28:29;8.68;;;3.00;;
26774;SDS011;14362;51.902;7.626;2022-08-01T23:32:33;5.35;;;3.10;;
26774;SDS011;14362;51.902;7.626;2022-08-01T23:36:34;5.70;;;3.17;;
26774;SDS011;14362;51.902;7.626;2022-08-01T23:40:36;7.07;;;3.20;;
26774;SDS011;14362;51.902;7.626;2022-08-01T23:44:38;6.93;;;3.08;;
26774;SDS011;14362;51.902;7.626;2022-08-01T23:48:41;5.30;;;2.80;;
26774;SDS011;14362;51.902;7.626;2022-08-01T23:52:42;3.50;;;3.13;;
26774;SDS011;14362;51.902;7.626;2022-08-01T23:56:44;5.63;;;3.30;;
